createdAt,value
2018-02-09T00:01:44.174Z,-1.00
2018-02-09T00:04:14.006Z,-1.00
2018-02-09T00:06:44.618Z,-1.10
2018-02-09T00:09:14.272Z,-1.10
2018-02-09T00:11:43.938Z,-1.10
2018-02-09T00:14:13.643Z,-1.10
2018-02-09T00:16:43.352Z,-1.10
2018-02-09T00:19:13.062Z,-1.10
2018-02-09T00:21:42.882Z,-1.10
2018-02-09T00:24:12.585Z,-1.10
2018-02-09T00:26:42.192Z,-1.10
2018-02-09T00:29:12.925Z,-1.10
2018-02-09T00:31:44.222Z,-1.20
2018-02-09T00:34:13.880Z,-1.20
2018-02-09T00:36:43.840Z,-1.20
2018-02-09T00:39:13.709Z,-1.20
2018-02-09T00:41:43.521Z,-1.20
2018-02-09T00:44:14.051Z,-1.30
2018-02-09T00:46:43.864Z,-1.20
2018-02-09T00:49:13.879Z,-1.30
2018-02-09T00:51:45.271Z,-1.40
2018-02-09T00:54:14.937Z,-1.40
2018-02-09T00:56:44.747Z,-1.30
2018-02-09T00:59:15.277Z,-1.30
2018-02-09T01:01:45.090Z,-1.30
2018-02-09T01:04:14.903Z,-1.30
2018-02-09T01:06:44.917Z,-1.40
2018-02-09T01:09:15.245Z,-1.30
2018-02-09T01:11:45.163Z,-1.30
2018-02-09T01:14:15.132Z,-1.30
2018-02-09T01:16:44.994Z,-1.40
2018-02-09T01:19:14.694Z,-1.40
2018-02-09T01:21:44.507Z,-1.40
2018-02-09T01:24:14.424Z,-1.40
2018-02-09T01:26:44.232Z,-1.40
2018-02-09T01:29:14.147Z,-1.40
2018-02-09T01:31:44.063Z,-1.40
2018-02-09T01:34:14.392Z,-1.40
2018-02-09T01:36:44.342Z,-1.40
2018-02-09T01:39:14.363Z,-1.40
2018-02-09T01:41:44.435Z,-1.50
2018-02-09T01:44:15.067Z,-1.50
2018-02-09T01:46:45.728Z,-1.50
2018-02-09T01:49:16.433Z,-1.50
2018-02-09T01:51:46.959Z,-1.50
2018-02-09T01:54:16.873Z,-1.50
2018-02-09T01:56:46.690Z,-1.50
2018-02-09T01:59:17.214Z,-1.50
2018-02-09T02:01:46.925Z,-1.50
2018-02-09T02:04:16.633Z,-1.50
2018-02-09T02:06:48.097Z,-1.50
2018-02-09T02:09:18.513Z,-1.50
2018-02-09T02:11:48.220Z,-1.60
2018-02-09T02:14:18.031Z,-1.50
2018-02-09T02:16:47.948Z,-1.50
2018-02-09T02:19:17.703Z,-1.60
2018-02-09T02:21:47.415Z,-1.60
2018-02-09T02:24:17.075Z,-1.60
2018-02-09T02:26:46.889Z,-1.60
2018-02-09T02:29:17.930Z,-1.60
2018-02-09T02:31:49.281Z,-1.70
2018-02-09T02:34:18.989Z,-1.70
2018-02-09T02:36:49.619Z,-1.70
2018-02-09T02:39:19.580Z,-1.70
2018-02-09T02:41:49.344Z,-1.70
2018-02-09T02:44:19.259Z,-1.80
2018-02-09T02:46:49.070Z,-1.70
2018-02-09T02:49:18.841Z,-1.70
2018-02-09T02:51:48.590Z,-1.70
2018-02-09T02:54:18.301Z,-1.70
2018-02-09T02:56:48.112Z,-1.70
2018-02-09T02:59:17.772Z,-1.80
2018-02-09T03:01:47.585Z,-1.80
2018-02-09T03:04:17.344Z,-1.80
2018-02-09T03:06:47.155Z,-1.80
2018-02-09T03:09:16.868Z,-1.80
2018-02-09T03:11:46.677Z,-1.90
2018-02-09T03:14:16.490Z,-1.90
2018-02-09T03:16:46.299Z,-1.90
2018-02-09T03:19:16.522Z,-1.90
2018-02-09T03:21:46.334Z,-1.90
2018-02-09T03:24:16.042Z,-1.90
2018-02-09T03:26:45.859Z,-1.90
2018-02-09T03:29:15.569Z,-1.90
2018-02-09T03:31:45.377Z,-1.90
2018-02-09T03:34:15.094Z,-1.90
2018-02-09T03:36:44.796Z,-1.90
2018-02-09T03:39:14.509Z,-1.90
2018-02-09T03:41:44.420Z,-2.00
2018-02-09T03:44:14.333Z,-2.00
2018-02-09T03:46:44.044Z,-2.00
2018-02-09T03:49:14.060Z,-1.90
2018-02-09T03:51:43.974Z,-1.90
2018-02-09T03:54:13.685Z,-2.00
2018-02-09T03:56:43.496Z,-2.00
2018-02-09T03:59:13.205Z,-2.00
2018-02-09T04:01:42.812Z,-2.00
2018-02-09T04:04:14.160Z,-2.00
2018-02-09T04:06:44.075Z,-2.00
2018-02-09T04:09:14.603Z,-2.00
2018-02-09T04:11:44.259Z,-2.00
2018-02-09T04:14:14.024Z,-2.00
2018-02-09T04:16:43.733Z,-2.00
2018-02-09T04:19:13.544Z,-2.00
2018-02-09T04:21:43.689Z,-2.10
2018-02-09T04:24:14.248Z,-2.00
2018-02-09T04:26:44.005Z,-2.00
2018-02-09T04:29:13.918Z,-2.10
2018-02-09T04:31:43.733Z,-2.10
2018-02-09T04:34:13.443Z,-2.10
2018-02-09T04:36:43.354Z,-2.10
2018-02-09T04:39:14.702Z,-2.10
2018-02-09T04:41:44.719Z,-2.10
2018-02-09T04:44:14.429Z,-2.10
2018-02-09T04:46:44.958Z,-2.10
2018-02-09T04:49:14.776Z,-2.10
2018-02-09T04:51:44.541Z,-2.10
2018-02-09T04:54:14.292Z,-2.10
2018-02-09T04:56:44.000Z,-2.10
2018-02-09T04:59:15.144Z,-2.20
2018-02-09T05:01:44.958Z,-2.20
2018-02-09T05:04:14.664Z,-2.20
2018-02-09T05:06:44.476Z,-2.20
2018-02-09T05:09:14.697Z,-2.20
2018-02-09T05:11:44.510Z,-2.20
2018-02-09T05:14:14.219Z,-2.20
2018-02-09T05:16:44.094Z,-2.20
2018-02-09T05:19:14.195Z,-2.20
2018-02-09T05:21:43.971Z,-2.20
2018-02-09T05:24:15.720Z,-2.30
2018-02-09T05:26:45.431Z,-2.30
2018-02-09T05:29:15.139Z,-2.30
2018-02-09T05:31:44.856Z,-2.30
2018-02-09T05:34:14.865Z,-2.20
2018-02-09T05:36:44.621Z,-2.20
2018-02-09T05:39:14.391Z,-2.20
2018-02-09T05:41:44.214Z,-2.30
2018-02-09T05:44:14.113Z,-2.30
2018-02-09T05:46:44.241Z,-2.30
2018-02-09T05:49:13.943Z,-2.30
2018-02-09T05:51:43.757Z,-2.30
2018-02-09T05:54:13.464Z,-2.30
2018-02-09T05:56:43.175Z,-2.30
2018-02-09T05:59:12.884Z,-2.30
2018-02-09T06:01:42.797Z,-2.30
2018-02-09T06:04:12.960Z,-2.40
2018-02-09T06:06:42.931Z,-2.40
2018-02-09T06:09:12.591Z,-2.40
2018-02-09T06:11:43.273Z,-2.40
2018-02-09T06:14:14.422Z,-2.50
2018-02-09T06:16:44.228Z,-2.50
2018-02-09T06:19:13.940Z,-2.40
2018-02-09T06:21:43.750Z,-2.40
2018-02-09T06:24:14.687Z,-2.40
2018-02-09T06:26:45.218Z,-2.40
2018-02-09T06:29:14.956Z,-2.40
2018-02-09T06:31:44.635Z,-2.40
2018-02-09T06:34:14.552Z,-2.40
2018-02-09T06:36:44.259Z,-2.40
2018-02-09T06:39:14.379Z,-2.40
2018-02-09T06:41:44.298Z,-2.40
2018-02-09T06:44:14.551Z,-2.50
2018-02-09T06:46:44.427Z,-2.50
2018-02-09T06:49:14.240Z,-2.50
2018-02-09T06:51:43.951Z,-2.50
2018-02-09T06:54:14.431Z,-2.50
2018-02-09T06:56:44.163Z,-2.50
2018-02-09T06:59:13.909Z,-2.50
2018-02-09T07:01:43.716Z,-2.50
2018-02-09T07:04:13.521Z,-2.50
2018-02-09T07:06:43.232Z,-2.50
2018-02-09T07:09:13.605Z,-2.50
2018-02-09T07:11:43.469Z,-2.50
2018-02-09T07:14:13.179Z,-2.50
2018-02-09T07:16:42.888Z,-2.50
2018-02-09T07:19:12.597Z,-2.50
2018-02-09T07:21:42.352Z,-2.50
2018-02-09T07:24:12.324Z,-2.50
2018-02-09T07:26:42.137Z,-2.50
2018-02-09T07:29:18.522Z,-2.50
2018-02-09T07:31:56.201Z,-2.50
2018-02-09T07:34:26.573Z,-2.50
2018-02-09T07:36:56.539Z,-2.60
2018-02-09T07:39:26.252Z,-2.60
2018-02-09T07:41:56.061Z,-2.60
2018-02-09T07:44:26.794Z,-2.60
2018-02-09T07:46:56.507Z,-2.60
2018-02-09T07:49:26.418Z,-2.60
2018-02-09T07:51:56.231Z,-2.60
2018-02-09T07:54:25.991Z,-2.60
2018-02-09T07:56:55.752Z,-2.60
2018-02-09T07:59:25.464Z,-2.50
2018-02-09T08:01:55.375Z,-2.50
2018-02-09T08:04:25.288Z,-2.50
2018-02-09T08:06:55.306Z,-2.50
2018-02-09T08:09:25.219Z,-2.50
2018-02-09T08:11:56.004Z,-2.40
2018-02-09T08:14:25.868Z,-2.40
2018-02-09T08:16:55.889Z,-2.30
2018-02-09T08:19:25.595Z,-2.20
2018-02-09T08:21:55.407Z,-2.10
2018-02-09T08:24:25.148Z,-2.10
2018-02-09T08:26:55.746Z,-2.00
2018-02-09T08:29:25.666Z,-2.00
2018-02-09T08:31:56.190Z,-1.90
2018-02-09T08:34:26.207Z,-1.90
2018-02-09T08:36:55.964Z,-1.90
2018-02-09T08:39:25.627Z,-1.80
2018-02-09T08:41:55.643Z,-1.80
2018-02-09T08:44:25.864Z,-1.80
2018-02-09T08:46:55.576Z,-1.80
2018-02-09T08:49:25.488Z,-1.80
2018-02-09T08:51:55.144Z,-1.80
2018-02-09T08:54:25.471Z,-1.80
2018-02-09T08:56:55.233Z,-1.80
2018-02-09T08:59:25.455Z,-1.70
2018-02-09T09:01:55.274Z,-1.70
2018-02-09T09:04:25.692Z,-1.60
2018-02-09T09:06:55.400Z,-1.60
2018-02-09T09:09:25.417Z,-1.50
2018-02-09T09:11:55.131Z,-1.50
2018-02-09T09:14:24.836Z,-1.40
2018-02-09T09:16:54.699Z,-1.40
2018-02-09T09:19:24.460Z,-1.30
2018-02-09T09:21:54.320Z,-1.30
2018-02-09T09:24:24.087Z,-1.20
2018-02-09T09:26:53.843Z,-1.20
2018-02-09T09:29:23.816Z,-1.10
2018-02-09T09:31:53.522Z,-1.10
2018-02-09T09:34:23.436Z,-1.00
2018-02-09T09:36:53.042Z,-1.00
2018-02-09T09:39:23.276Z,-1.00
2018-02-09T09:41:53.932Z,-0.90
2018-02-09T09:44:23.740Z,-0.90
2018-02-09T09:46:53.416Z,-0.80
2018-02-09T09:49:23.230Z,-0.80
2018-02-09T09:51:53.756Z,-0.70
2018-02-09T09:54:24.184Z,-0.70
2018-02-09T09:56:53.893Z,-0.70
2018-02-09T09:59:24.020Z,-0.60
2018-02-09T10:01:53.825Z,-0.60
2018-02-09T10:04:23.894Z,-0.60
2018-02-09T10:06:53.753Z,-0.50
2018-02-09T10:09:23.365Z,-0.50
2018-02-09T10:11:53.891Z,-0.40
2018-02-09T10:14:23.601Z,-0.30
2018-02-09T10:16:53.263Z,-0.30
2018-02-09T10:19:22.870Z,-0.30
2018-02-09T10:21:52.729Z,-0.30
2018-02-09T10:24:22.951Z,-0.20
2018-02-09T10:26:53.993Z,-0.20
2018-02-09T10:29:23.701Z,-0.10
2018-02-09T10:31:55.051Z,-0.10
2018-02-09T10:34:25.016Z,-0.10
2018-02-09T10:36:55.537Z,0.00
2018-02-09T10:39:25.512Z,-0.10
2018-02-09T10:41:55.524Z,0.00
2018-02-09T10:44:25.339Z,0.10
2018-02-09T10:46:55.295Z,0.10
2018-02-09T10:49:25.261Z,0.20
2018-02-09T10:51:55.092Z,0.20
2018-02-09T10:54:24.892Z,0.20
2018-02-09T10:56:55.012Z,0.20
2018-02-09T10:59:24.903Z,0.30
2018-02-09T11:01:54.738Z,0.30
2018-02-09T11:04:24.549Z,0.40
2018-02-09T11:06:54.361Z,0.50
2018-02-09T11:09:29.297Z,0.50
2018-02-09T11:11:59.520Z,0.50
2018-02-09T11:14:30.048Z,0.50
2018-02-09T11:16:59.856Z,0.50
2018-02-09T11:19:29.727Z,0.60
2018-02-09T11:21:59.583Z,0.60
2018-02-09T11:24:30.010Z,0.70
2018-02-09T11:26:59.823Z,0.80
2018-02-09T11:29:29.531Z,0.80
2018-02-09T11:31:59.239Z,0.80
2018-02-09T11:34:29.439Z,0.80
2018-02-09T11:36:59.170Z,1.00
2018-02-09T11:39:29.424Z,1.10
2018-02-09T11:41:59.204Z,1.10
2018-02-09T11:44:28.913Z,1.00
2018-02-09T11:46:58.725Z,1.00
2018-02-09T11:49:28.948Z,0.90
2018-02-09T11:51:58.656Z,1.00
2018-02-09T11:54:29.391Z,1.10
2018-02-09T11:56:59.100Z,1.10
2018-02-09T11:59:29.940Z,1.10
2018-02-09T12:02:00.415Z,1.10
2018-02-09T12:04:30.583Z,1.00
2018-02-09T12:07:02.287Z,1.10
2018-02-09T12:09:32.748Z,1.10
2018-02-09T12:12:03.949Z,1.10
2018-02-09T12:14:34.049Z,1.10
2018-02-09T12:17:04.153Z,1.10
2018-02-09T12:19:36.308Z,1.10
2018-02-09T12:22:06.849Z,1.10
2018-02-09T12:24:36.957Z,1.10
2018-02-09T12:27:06.838Z,1.10
2018-02-09T12:29:36.915Z,1.10
2018-02-09T12:32:07.788Z,1.20
2018-02-09T12:34:38.170Z,1.10
2018-02-09T12:37:08.513Z,1.20
2018-02-09T12:39:38.297Z,1.20
2018-02-09T12:42:08.589Z,1.20
2018-02-09T12:44:38.537Z,1.20
2018-02-09T12:47:08.453Z,1.20
2018-02-09T12:49:38.466Z,1.30
2018-02-09T12:52:08.172Z,1.30
2018-02-09T12:54:37.985Z,1.30
2018-02-09T12:57:07.852Z,1.70
2018-02-09T12:59:37.610Z,1.90
2018-02-09T13:02:07.467Z,1.70
2018-02-09T13:04:37.233Z,1.60
2018-02-09T13:07:07.148Z,1.50
2018-02-09T13:09:37.061Z,1.50
2018-02-09T13:12:06.773Z,1.40
2018-02-09T13:14:46.312Z,1.40
2018-02-09T13:17:16.123Z,1.40
2018-02-09T13:19:45.835Z,1.50
2018-02-09T13:22:26.705Z,1.40
2018-02-09T13:25:02.840Z,1.40
2018-02-09T13:27:39.757Z,1.50
2018-02-09T13:30:10.168Z,1.40
2018-02-09T13:33:51.968Z,1.40
2018-02-09T13:36:26.560Z,1.30
2018-02-09T13:38:57.023Z,1.40
2018-02-09T13:41:27.138Z,1.40
2018-02-09T13:43:56.851Z,1.40
2018-02-09T13:46:27.788Z,1.40
2018-02-09T13:49:06.354Z,1.40
2018-02-09T13:51:45.372Z,1.40
2018-02-09T13:54:22.178Z,1.40
2018-02-09T13:56:52.476Z,1.40
2018-02-09T13:59:22.381Z,1.40
2018-02-09T14:01:52.409Z,1.30
2018-02-09T14:04:22.582Z,1.30
2018-02-09T14:06:52.554Z,1.20
2018-02-09T14:09:22.466Z,1.20
2018-02-09T14:11:55.607Z,1.20
2018-02-09T14:14:25.360Z,1.20
2018-02-09T14:16:55.022Z,1.10
2018-02-09T14:19:24.836Z,1.10
2018-02-09T14:21:55.362Z,1.10
2018-02-09T14:24:30.959Z,1.10
2018-02-09T14:27:00.881Z,1.10
2018-02-09T14:29:30.779Z,1.10
2018-02-09T14:32:00.652Z,1.00
2018-02-09T14:34:30.468Z,1.00
2018-02-09T14:37:00.462Z,1.00
2018-02-09T14:39:30.618Z,1.00
2018-02-09T14:42:00.521Z,1.00
2018-02-09T14:44:30.477Z,1.00
2018-02-09T14:47:00.344Z,1.00
2018-02-09T14:49:30.310Z,1.00
2018-02-09T14:51:59.972Z,1.00
2018-02-09T14:54:31.010Z,0.90
2018-02-09T14:57:00.951Z,0.90
2018-02-09T14:59:31.555Z,0.90
2018-02-09T15:02:01.367Z,0.90
2018-02-09T15:04:31.367Z,0.90
2018-02-09T15:07:01.092Z,0.90
2018-02-09T15:09:31.131Z,0.90
2018-02-09T15:12:01.746Z,0.90
2018-02-09T15:14:33.426Z,0.80
2018-02-09T15:17:03.540Z,0.80
2018-02-09T15:19:34.356Z,0.80
2018-02-09T15:22:04.270Z,0.80
2018-02-09T15:24:34.568Z,0.80
2018-02-09T15:27:04.402Z,0.80
2018-02-09T15:29:34.934Z,0.80
2018-02-09T15:32:04.744Z,0.70
2018-02-09T15:34:34.452Z,0.80
2018-02-09T15:37:05.952Z,0.70
2018-02-09T15:39:35.919Z,0.80
2018-02-09T15:42:05.732Z,0.70
2018-02-09T15:44:35.804Z,0.70
2018-02-09T15:47:05.631Z,0.70
2018-02-09T15:49:35.625Z,0.70
2018-02-09T15:52:06.371Z,0.70
2018-02-09T15:54:36.126Z,0.70
2018-02-09T15:57:06.941Z,0.60
2018-02-09T15:59:37.086Z,0.60
2018-02-09T16:02:06.994Z,0.60
2018-02-09T16:04:38.546Z,0.60
2018-02-09T16:07:08.742Z,0.60
2018-02-09T16:09:38.581Z,0.60
2018-02-09T16:12:09.394Z,0.60
2018-02-09T16:14:39.433Z,0.60
2018-02-09T16:17:09.401Z,0.60
2018-02-09T16:19:39.261Z,0.60
2018-02-09T16:22:09.018Z,0.50
2018-02-09T16:24:39.581Z,0.50
2018-02-09T16:27:09.494Z,0.50
2018-02-09T16:29:39.538Z,0.50
2018-02-09T16:32:09.408Z,0.90
2018-02-09T16:34:40.126Z,1.50
2018-02-09T16:37:10.219Z,1.50
2018-02-09T16:39:40.212Z,1.60
2018-02-09T16:42:10.131Z,1.80
2018-02-09T16:44:40.864Z,2.10
2018-02-09T16:47:11.026Z,2.00
2018-02-09T16:49:40.897Z,2.10
2018-02-09T16:52:11.732Z,2.20
2018-02-09T16:54:41.647Z,2.20
2018-02-09T16:57:12.585Z,2.30
2018-02-09T16:59:42.501Z,2.30
2018-02-09T17:02:12.414Z,2.30
2018-02-09T17:04:43.766Z,2.20
2018-02-09T17:07:13.677Z,2.20
2018-02-09T17:09:43.700Z,2.30
2018-02-09T17:12:14.025Z,2.30
2018-02-09T17:14:44.138Z,2.30
2018-02-09T17:17:14.059Z,2.30
2018-02-09T17:19:43.764Z,2.30
2018-02-09T17:22:13.787Z,2.30
2018-02-09T17:24:44.413Z,2.30
2018-02-09T17:27:14.434Z,2.20
2018-02-09T17:29:45.364Z,2.20
2018-02-09T17:32:15.587Z,2.20
2018-02-09T17:34:45.297Z,2.20
2018-02-09T17:37:15.109Z,2.20
2018-02-09T17:39:45.187Z,2.20
2018-02-09T17:42:15.224Z,2.20
2018-02-09T17:44:44.954Z,2.20
2018-02-09T17:47:14.835Z,2.20
2018-02-09T17:49:44.871Z,2.20
2018-02-09T17:52:14.698Z,2.10
2018-02-09T17:54:44.805Z,2.10
2018-02-09T17:57:14.823Z,2.10
2018-02-09T17:59:44.747Z,2.10
2018-02-09T18:02:14.568Z,2.10
2018-02-09T18:04:44.427Z,2.10
2018-02-09T18:07:14.285Z,2.10
2018-02-09T18:09:44.210Z,2.10
2018-02-09T18:12:15.139Z,2.10
2018-02-09T18:14:44.856Z,2.00
2018-02-09T18:17:14.837Z,2.00
2018-02-09T18:19:44.782Z,2.10
2018-02-09T18:22:14.898Z,2.10
2018-02-09T18:24:45.934Z,2.00
2018-02-09T18:27:15.855Z,2.00
2018-02-09T18:29:45.669Z,2.00
2018-02-09T18:32:15.480Z,2.00
2018-02-09T18:34:45.699Z,2.00
2018-02-09T18:37:15.513Z,1.90
2018-02-09T18:39:45.529Z,1.90
2018-02-09T18:42:15.340Z,1.90
2018-02-09T18:44:45.255Z,1.90
2018-02-09T18:47:15.273Z,1.90
2018-02-09T18:49:46.647Z,1.80
2018-02-09T18:52:16.592Z,1.80
2018-02-09T18:54:46.521Z,1.80
2018-02-09T18:57:16.467Z,1.80
2018-02-09T18:59:46.458Z,1.80
2018-02-09T19:02:16.223Z,1.80
2018-02-09T19:04:46.830Z,1.70
2018-02-09T19:07:16.535Z,1.70
2018-02-09T19:09:46.567Z,1.70
2018-02-09T19:12:16.668Z,1.70
2018-02-09T19:14:48.226Z,1.70
2018-02-09T19:17:18.184Z,1.70
2018-02-09T19:19:48.152Z,1.70
2018-02-09T19:22:18.009Z,1.70
2018-02-09T19:24:47.986Z,1.60
2018-02-09T19:27:17.803Z,1.60
2018-02-09T19:29:47.782Z,1.60
2018-02-09T19:32:17.634Z,1.60
2018-02-09T19:34:47.537Z,1.60
2018-02-09T19:37:17.554Z,1.50
2018-02-09T19:39:47.370Z,1.50
2018-02-09T19:42:17.281Z,1.50
2018-02-09T19:44:47.195Z,1.40
2018-02-09T19:47:16.908Z,1.40
2018-02-09T19:49:47.637Z,1.40
2018-02-09T19:52:19.477Z,1.40
2018-02-09T19:54:50.596Z,1.40
2018-02-09T19:57:21.008Z,1.40
2018-02-09T19:59:51.187Z,1.40
2018-02-09T20:02:21.177Z,1.30
2018-02-09T20:04:51.121Z,1.30
2018-02-09T20:07:21.083Z,1.30
2018-02-09T20:09:51.015Z,1.20
2018-02-09T20:12:21.421Z,1.20
2018-02-09T20:14:51.492Z,1.20
2018-02-09T20:17:21.723Z,1.20
2018-02-09T20:19:52.528Z,1.20
2018-02-09T20:22:22.481Z,1.10
2018-02-09T20:24:52.582Z,1.10
2018-02-09T20:27:22.806Z,1.10
2018-02-09T20:29:52.830Z,1.10
2018-02-09T20:32:22.736Z,1.00
2018-02-09T20:34:52.759Z,1.00
2018-02-09T20:37:22.523Z,1.00
2018-02-09T20:39:52.277Z,1.00
2018-02-09T20:42:24.656Z,0.90
2018-02-09T20:44:54.570Z,0.90
2018-02-09T20:47:24.447Z,0.90
2018-02-09T20:49:54.291Z,0.90
2018-02-09T20:52:24.406Z,0.90
2018-02-09T20:54:54.426Z,0.90
2018-02-09T20:57:25.302Z,0.90
2018-02-09T20:59:55.546Z,0.80
2018-02-09T21:02:25.499Z,0.80
2018-02-09T21:04:56.027Z,0.80
2018-02-09T21:07:26.453Z,0.80
2018-02-09T21:09:56.272Z,0.80
2018-02-09T21:12:26.589Z,0.70
2018-02-09T21:14:56.475Z,0.70
2018-02-09T21:17:26.417Z,0.70
2018-02-09T21:19:56.833Z,0.70
2018-02-09T21:22:26.731Z,0.70
2018-02-09T21:24:56.472Z,0.60
2018-02-09T21:27:26.690Z,0.60
2018-02-09T21:29:57.390Z,0.60
2018-02-09T21:32:27.523Z,0.60
2018-02-09T21:34:57.356Z,0.60
2018-02-09T21:37:27.642Z,0.50
2018-02-09T21:39:58.004Z,0.50
2018-02-09T21:42:28.012Z,0.50
2018-02-09T21:44:58.253Z,0.50
2018-02-09T21:47:28.155Z,0.50
2018-02-09T21:49:58.174Z,0.40
2018-02-09T21:52:28.191Z,0.40
2018-02-09T21:54:58.116Z,0.40
2018-02-09T21:57:28.017Z,0.40
2018-02-09T21:59:58.034Z,0.40
2018-02-09T22:02:28.564Z,0.30
2018-02-09T22:04:59.501Z,0.30
2018-02-09T22:07:29.524Z,0.30
2018-02-09T22:10:00.256Z,0.30
2018-02-09T22:12:30.148Z,0.20
2018-02-09T22:15:00.183Z,0.20
2018-02-09T22:17:29.994Z,0.20
2018-02-09T22:19:59.805Z,0.20
2018-02-09T22:22:29.523Z,0.20
2018-02-09T22:24:59.588Z,0.10
2018-02-09T22:27:29.559Z,0.10
2018-02-09T22:30:00.197Z,0.10
2018-02-09T22:32:31.426Z,0.00
2018-02-09T22:35:03.188Z,0.00
2018-02-09T22:37:33.305Z,0.00
2018-02-09T22:40:03.280Z,0.00
2018-02-09T22:42:33.037Z,0.00
2018-02-09T22:45:02.936Z,0.00
2018-02-09T22:47:32.929Z,0.00
2018-02-09T22:50:02.875Z,0.00
2018-02-09T22:52:32.687Z,-0.10
2018-02-09T22:55:04.878Z,-0.10
2018-02-09T22:57:35.793Z,-0.10
2018-02-09T23:00:06.936Z,-0.10
2018-02-09T23:02:36.952Z,-0.10
2018-02-09T23:05:07.481Z,-0.10
2018-02-09T23:07:37.190Z,-0.10
2018-02-09T23:10:07.140Z,-0.20
2018-02-09T23:12:36.920Z,-0.20
2018-02-09T23:15:07.037Z,-0.20
2018-02-09T23:17:38.999Z,-0.30
2018-02-09T23:20:08.715Z,-0.30
2018-02-09T23:22:38.930Z,-0.30
2018-02-09T23:25:09.869Z,-0.30
2018-02-09T23:27:39.690Z,-0.30
2018-02-09T23:30:09.698Z,-0.30
2018-02-09T23:32:40.127Z,-0.30
2018-02-09T23:35:11.676Z,-0.40
2018-02-09T23:37:41.487Z,-0.40
2018-02-09T23:40:11.772Z,-0.40
2018-02-09T23:42:41.726Z,-0.40
2018-02-09T23:45:11.541Z,-0.40
2018-02-09T23:47:41.555Z,-0.40
2018-02-09T23:50:11.366Z,-0.40
2018-02-09T23:52:41.079Z,-0.40
2018-02-09T23:55:11.079Z,-0.50
2018-02-09T23:57:41.219Z,-0.50
